Time;durP1;ratioP1;P1;durP2;ratioP2;P2;SDS_P1;SDS_P2;PMS_P1;PMS_P2;Temp;Humidity;BMP_temperature;BMP_pressure;BME280_temperature;BME280_humidity;BME280_pressure;Samples;Min_cycle;Max_cycle;Signal;HPM_P1;HPM_P2
2021/07/31 00:01:48;;;;;;;5.68;4.00;;;20.10;99.90;;;;;;4256608;27;20023;-61
2021/07/31 00:03:49;;;;;;;4.60;3.72;;;20.00;99.90;;;;;;4256135;27;20099;-61
2021/07/31 00:05:51;;;;;;;5.00;3.70;;;20.00;99.90;;;;;;4256344;27;20087;-61
2021/07/31 00:07:52;;;;;;;6.53;3.50;;;20.00;99.90;;;;;;4255511;27;20031;-61
2021/07/31 00:09:53;;;;;;;4.78;3.40;;;20.00;99.90;;;;;;4257252;27;20565;-61
2021/07/31 00:11:54;;;;;;;7.20;4.30;;;20.00;99.90;;;;;;4256458;27;20090;-61
2021/07/31 00:13:55;;;;;;;5.43;3.85;;;20.00;99.90;;;;;;4257184;27;20031;-61
2021/07/31 00:15:57;;;;;;;5.18;3.70;;;20.00;99.90;;;;;;4256322;27;20649;-61
2021/07/31 00:17:58;;;;;;;5.15;3.50;;;20.00;99.90;;;;;;4257920;27;20042;-61
2021/07/31 00:19:59;;;;;;;4.45;3.28;;;20.00;99.90;;;;;;4255985;27;20042;-61
2021/07/31 00:22:01;;;;;;;7.32;3.80;;;20.00;99.90;;;;;;4257272;27;20502;-62
2021/07/31 00:24:03;;;;;;;6.05;3.58;;;20.00;99.90;;;;;;4256069;27;20022;-62
2021/07/31 00:26:04;;;;;;;6.50;4.03;;;19.90;99.90;;;;;;4257042;27;20046;-62
2021/07/31 00:28:07;;;;;;;4.22;3.55;;;19.90;99.90;;;;;;4255307;27;20748;-62
2021/07/31 00:30:10;;;;;;;4.78;3.65;;;19.90;99.90;;;;;;4255650;27;20043;-62
2021/07/31 00:32:11;;;;;;;9.90;4.85;;;19.90;99.90;;;;;;4255267;27;20111;-61
2021/07/31 00:34:12;;;;;;;8.75;4.00;;;19.90;99.90;;;;;;4256457;27;20022;-62
2021/07/31 00:36:13;;;;;;;9.57;3.90;;;19.80;99.90;;;;;;4236672;27;20035;-62
2021/07/31 00:38:15;;;;;;;4.28;3.88;;;19.80;99.90;;;;;;4256885;27;20038;-61
2021/07/31 00:40:16;;;;;;;7.90;3.78;;;19.80;99.90;;;;;;4256055;27;20091;-61
2021/07/31 00:42:17;;;;;;;6.70;3.58;;;19.80;99.90;;;;;;4256684;27;20095;-61
2021/07/31 00:44:18;;;;;;;6.28;4.07;;;19.70;99.90;;;;;;4256487;27;20042;-62
2021/07/31 00:46:19;;;;;;;6.82;3.70;;;19.70;99.90;;;;;;4249996;27;20031;-62
2021/07/31 00:48:21;;;;;;;4.45;3.47;;;19.70;99.90;;;;;;4248598;27;20474;-61
2021/07/31 00:50:22;;;;;;;6.78;4.30;;;19.70;99.90;;;;;;4236824;27;20050;-61
2021/07/31 00:52:23;;;;;;;5.22;3.60;;;19.70;99.90;;;;;;4256605;27;20676;-61
2021/07/31 00:54:25;;;;;;;5.22;3.72;;;19.60;99.90;;;;;;4255714;27;20027;-61
2021/07/31 00:56:26;;;;;;;8.93;4.13;;;19.60;99.90;;;;;;4256541;27;20027;-61
2021/07/31 00:58:28;;;;;;;5.68;3.92;;;19.60;99.90;;;;;;4256005;27;20051;-61
2021/07/31 01:00:29;;;;;;;5.35;3.30;;;19.60;99.90;;;;;;4256130;27;20094;-62
2021/07/31 01:02:30;;;;;;;9.40;3.67;;;19.60;99.90;;;;;;4256249;27;20022;-61
2021/07/31 01:04:31;;;;;;;5.20;3.50;;;19.60;99.90;;;;;;4255590;27;20888;-61
2021/07/31 01:06:32;;;;;;;5.80;3.92;;;19.50;99.90;;;;;;4254933;27;20039;-61
2021/07/31 01:08:34;;;;;;;4.72;3.38;;;19.50;99.90;;;;;;4256663;27;20038;-61
2021/07/31 01:10:35;;;;;;;7.40;3.65;;;19.50;99.90;;;;;;4254635;27;20518;-61
2021/07/31 01:12:39;;;;;;;4.63;3.90;;;19.40;99.90;;;;;;4255703;27;20091;-61
2021/07/31 01:14:41;;;;;;;4.18;3.35;;;19.40;99.90;;;;;;4256647;27;20075;-62
2021/07/31 01:16:42;;;;;;;5.90;3.72;;;19.40;99.90;;;;;;4255856;27;20428;-61
2021/07/31 01:18:43;;;;;;;5.78;3.40;;;19.30;99.90;;;;;;4256390;27;20034;-61
2021/07/31 01:20:44;;;;;;;8.85;4.00;;;19.30;99.90;;;;;;4255261;27;20035;-61
2021/07/31 01:22:45;;;;;;;3.85;3.33;;;19.30;99.90;;;;;;4255763;27;20050;-61
2021/07/31 01:24:47;;;;;;;7.22;3.58;;;19.30;99.90;;;;;;4254642;27;20042;-62
2021/07/31 01:26:49;;;;;;;4.75;3.33;;;19.20;99.90;;;;;;4256387;27;20034;-61
2021/07/31 01:28:50;;;;;;;3.78;3.28;;;19.30;99.90;;;;;;4255830;27;20472;-61
2021/07/31 01:30:51;;;;;;;11.10;4.55;;;19.20;99.90;;;;;;4256226;27;20087;-62
2021/07/31 01:32:53;;;;;;;5.80;3.75;;;19.20;99.90;;;;;;4254698;27;20103;-61
2021/07/31 01:34:54;;;;;;;4.53;3.45;;;19.20;99.90;;;;;;4255999;27;20038;-62
2021/07/31 01:36:55;;;;;;;5.43;3.58;;;19.20;99.90;;;;;;4256083;27;20431;-61
2021/07/31 01:38:56;;;;;;;4.68;3.47;;;19.10;99.90;;;;;;4257303;27;20133;-61
2021/07/31 01:40:58;;;;;;;6.32;3.58;;;19.20;99.90;;;;;;4258320;27;20034;-61
2021/07/31 01:42:59;;;;;;;3.53;3.20;;;19.20;99.90;;;;;;4258998;27;20072;-61
2021/07/31 01:45:00;;;;;;;4.43;3.25;;;19.20;99.90;;;;;;4259890;27;20052;-62
2021/07/31 01:47:01;;;;;;;6.82;4.13;;;19.10;99.90;;;;;;4259345;27;20881;-62
2021/07/31 01:49:02;;;;;;;6.30;3.38;;;19.00;99.90;;;;;;4259091;27;20083;-61
2021/07/31 01:51:03;;;;;;;4.65;3.63;;;19.00;99.90;;;;;;4259058;27;20470;-61
2021/07/31 01:53:04;;;;;;;7.53;4.13;;;18.90;99.90;;;;;;4259524;27;20038;-61
2021/07/31 01:55:06;;;;;;;3.97;3.35;;;18.90;99.90;;;;;;4257695;27;20084;-61
2021/07/31 01:57:08;;;;;;;5.38;3.72;;;18.90;99.90;;;;;;4259934;27;20443;-62
2021/07/31 01:59:09;;;;;;;7.90;4.05;;;18.90;99.90;;;;;;4240039;27;20095;-61
2021/07/31 02:01:11;;;;;;;4.95;3.70;;;18.90;99.90;;;;;;4259904;27;20083;-62
2021/07/31 02:03:12;;;;;;;10.15;3.55;;;18.90;99.90;;;;;;4258831;27;20087;-61
2021/07/31 02:05:13;;;;;;;5.00;3.90;;;18.90;99.90;;;;;;4259007;27;20087;-62
2021/07/31 02:07:14;;;;;;;6.70;4.85;;;18.80;99.90;;;;;;4258769;27;20038;-61
2021/07/31 02:09:15;;;;;;;7.70;4.40;;;18.70;99.90;;;;;;4258090;27;20087;-61
2021/07/31 02:11:17;;;;;;;11.82;4.72;;;18.60;99.90;;;;;;4257612;27;20042;-62
2021/07/31 02:13:18;;;;;;;7.63;4.28;;;18.50;99.90;;;;;;4258217;27;20046;-62
2021/07/31 02:15:19;;;;;;;6.00;4.60;;;18.50;99.90;;;;;;4258535;27;20031;-61
2021/07/31 02:17:20;;;;;;;8.98;4.80;;;18.50;99.90;;;;;;4258093;27;20540;-61
2021/07/31 02:19:22;;;;;;;12.95;7.78;;;18.40;99.90;;;;;;4257573;27;20091;-61
2021/07/31 02:21:23;;;;;;;14.00;6.20;;;18.40;99.90;;;;;;4257007;27;20087;-61
2021/07/31 02:23:24;;;;;;;8.20;6.10;;;18.40;99.90;;;;;;4258761;27;20054;-60
2021/07/31 02:25:25;;;;;;;8.52;6.50;;;18.40;99.90;;;;;;4258297;27;20035;-60
2021/07/31 02:27:26;;;;;;;10.70;6.20;;;18.40;99.90;;;;;;4258509;27;20035;-61
2021/07/31 02:29:27;;;;;;;10.88;6.75;;;18.40;99.90;;;;;;4258035;27;20505;-62
2021/07/31 02:31:28;;;;;;;10.13;6.80;;;18.30;99.90;;;;;;4258935;27;20073;-61
2021/07/31 02:33:29;;;;;;;9.98;6.63;;;18.20;99.90;;;;;;4258029;27;20103;-62
2021/07/31 02:35:35;;;;;;;10.90;7.63;;;18.10;99.90;;;;;;4258891;27;20027;-62
2021/07/31 02:37:37;;;;;;;10.75;6.30;;;18.10;99.90;;;;;;4258674;27;20067;-62
2021/07/31 02:39:38;;;;;;;14.77;6.20;;;18.00;99.90;;;;;;4257966;27;20072;-60
2021/07/31 02:41:39;;;;;;;14.35;6.97;;;18.00;99.90;;;;;;4258216;27;20034;-61
2021/07/31 02:43:40;;;;;;;12.85;6.88;;;17.90;99.90;;;;;;4258504;27;20083;-61
2021/07/31 02:45:41;;;;;;;7.85;5.20;;;17.80;99.90;;;;;;4259218;27;20083;-62
2021/07/31 02:47:43;;;;;;;13.80;6.88;;;17.70;99.90;;;;;;4258499;27;20435;-60
2021/07/31 02:49:44;;;;;;;9.40;6.13;;;17.60;99.90;;;;;;4258230;27;20035;-61
2021/07/31 02:51:47;;;;;;;12.95;6.10;;;17.60;99.90;;;;;;4257617;27;20150;-61
2021/07/31 02:53:48;;;;;;;9.43;6.30;;;17.60;99.90;;;;;;4239387;27;20075;-61
2021/07/31 02:55:49;;;;;;;11.60;6.82;;;17.60;99.90;;;;;;4258072;27;20034;-61
2021/07/31 02:57:50;;;;;;;10.40;6.43;;;17.50;99.90;;;;;;4258613;27;20542;-61
2021/07/31 02:59:51;;;;;;;15.95;7.72;;;17.50;99.90;;;;;;4258112;27;20111;-62
2021/07/31 03:01:52;;;;;;;13.43;7.18;;;17.30;99.90;;;;;;4257982;27;20079;-61
2021/07/31 03:03:55;;;;;;;14.02;7.63;;;17.50;99.90;;;;;;4257398;27;20038;-60
2021/07/31 03:05:58;;;;;;;12.70;7.35;;;17.50;99.90;;;;;;4257104;27;20042;-62
2021/07/31 03:07:59;;;;;;;13.80;7.38;;;17.40;99.90;;;;;;4258115;27;20511;-61
2021/07/31 03:10:00;;;;;;;16.67;8.30;;;17.30;99.90;;;;;;4257540;27;20443;-61
2021/07/31 03:12:02;;;;;;;17.40;8.18;;;17.30;99.90;;;;;;4257746;27;20090;-61
2021/07/31 03:14:03;;;;;;;14.20;8.13;;;17.30;99.90;;;;;;4258053;27;20072;-61
2021/07/31 03:16:06;;;;;;;11.30;8.23;;;17.20;99.90;;;;;;4257941;27;20031;-61
2021/07/31 03:18:07;;;;;;;13.35;8.55;;;17.20;99.90;;;;;;4258329;27;20436;-61
2021/07/31 03:20:09;;;;;;;14.85;7.72;;;17.20;99.90;;;;;;4257549;27;20035;-61
2021/07/31 03:22:10;;;;;;;19.13;8.07;;;17.20;99.90;;;;;;4257824;27;20031;-61
2021/07/31 03:24:11;;;;;;;19.38;8.02;;;17.40;99.90;;;;;;4257831;27;20094;-62
2021/07/31 03:26:13;;;;;;;18.38;7.32;;;17.50;99.90;;;;;;4257689;27;20107;-61
2021/07/31 03:28:14;;;;;;;20.00;8.00;;;17.70;99.90;;;;;;4257421;27;20034;-62
2021/07/31 03:30:16;;;;;;;16.02;7.05;;;17.90;99.90;;;;;;4257296;27;20377;-61
2021/07/31 03:32:17;;;;;;;11.73;7.18;;;18.10;99.90;;;;;;4257683;27;20018;-61
2021/07/31 03:34:21;;;;;;;14.52;8.07;;;18.30;99.90;;;;;;4256721;27;20034;-62
2021/07/31 03:36:22;;;;;;;15.38;7.38;;;18.60;99.90;;;;;;4256110;27;20043;-62
2021/07/31 03:38:24;;;;;;;19.38;7.32;;;18.80;99.90;;;;;;4256356;27;20026;-61
2021/07/31 03:40:25;;;;;;;14.55;8.30;;;19.00;99.90;;;;;;4256563;27;20043;-60
2021/07/31 03:42:26;;;;;;;13.65;7.30;;;19.20;99.90;;;;;;4256082;27;20038;-62
2021/07/31 03:44:27;;;;;;;13.82;8.05;;;19.40;99.90;;;;;;4257463;27;20022;-62
2021/07/31 03:46:28;;;;;;;17.88;8.90;;;19.40;99.90;;;;;;4257360;27;20375;-62
2021/07/31 03:48:29;;;;;;;19.63;10.00;;;19.50;99.90;;;;;;4238667;27;20035;-61
2021/07/31 03:50:31;;;;;;;22.70;11.48;;;19.40;99.90;;;;;;4256621;27;20103;-62
2021/07/31 03:52:32;;;;;;;20.52;11.85;;;19.30;99.90;;;;;;4256532;27;20889;-62
2021/07/31 03:54:36;;;;;;;28.77;12.82;;;19.50;99.90;;;;;;4256078;27;20051;-62
2021/07/31 03:56:37;;;;;;;21.88;11.57;;;19.90;99.90;;;;;;4257175;27;20557;-61
2021/07/31 03:58:38;;;;;;;19.67;10.63;;;20.30;99.90;;;;;;4256920;27;20058;-62
2021/07/31 04:00:40;;;;;;;21.70;10.48;;;20.60;99.90;;;;;;4256234;27;20526;-62
2021/07/31 04:02:42;;;;;;;18.20;10.13;;;21.00;99.90;;;;;;4257195;27;20026;-61
2021/07/31 04:04:43;;;;;;;19.20;10.40;;;21.40;99.90;;;;;;4255768;27;20099;-61
2021/07/31 04:06:44;;;;;;;15.98;8.32;;;21.30;99.90;;;;;;4237727;27;20526;-62
2021/07/31 04:08:45;;;;;;;17.08;9.80;;;21.50;99.90;;;;;;4256684;27;20034;-62
2021/07/31 04:10:46;;;;;;;20.30;8.65;;;21.80;99.90;;;;;;4256581;27;20027;-61
2021/07/31 04:12:47;;;;;;;15.90;9.18;;;21.90;99.90;;;;;;4255682;27;20083;-62
2021/07/31 04:14:48;;;;;;;17.55;9.13;;;22.40;99.90;;;;;;4257563;27;20038;-62
2021/07/31 04:16:49;;;;;;;21.40;9.30;;;22.70;99.90;;;;;;4237868;27;20035;-61
2021/07/31 04:18:50;;;;;;;16.33;9.40;;;23.00;99.90;;;;;;4256466;27;20083;-61
2021/07/31 04:20:52;;;;;;;24.50;10.82;;;23.40;99.90;;;;;;4255406;27;20760;-62
2021/07/31 04:22:53;;;;;;;18.65;10.73;;;24.00;99.90;;;;;;4256206;27;20489;-62
2021/07/31 04:24:54;;;;;;;16.48;9.82;;;24.60;99.90;;;;;;4256677;27;20031;-61
2021/07/31 04:26:55;;;;;;;15.98;8.15;;;24.70;99.90;;;;;;4255488;27;20382;-62
2021/07/31 04:28:56;;;;;;;21.13;11.02;;;25.10;99.90;;;;;;4256280;27;20103;-62
2021/07/31 04:30:57;;;;;;;21.92;10.25;;;25.50;99.40;;;;;;4256121;27;20030;-62
2021/07/31 04:32:58;;;;;;;18.20;10.38;;;25.70;98.90;;;;;;4256764;27;20015;-61
2021/07/31 04:35:02;;;;;;;20.40;11.50;;;25.80;98.50;;;;;;4255685;27;20617;-62
2021/07/31 04:37:04;;;;;;;23.38;12.27;;;26.00;97.90;;;;;;4254839;27;20030;-62
2021/07/31 04:39:06;;;;;;;25.80;13.57;;;26.00;97.70;;;;;;4255840;27;20094;-62
2021/07/31 04:41:07;;;;;;;20.20;12.73;;;26.40;97.40;;;;;;4256808;27;20435;-62
2021/07/31 04:43:08;;;;;;;19.48;12.02;;;26.80;96.80;;;;;;4255372;27;20042;-62
2021/07/31 04:45:10;;;;;;;22.58;12.07;;;27.00;96.40;;;;;;4256721;27;20748;-62
2021/07/31 04:47:11;;;;;;;21.05;12.02;;;27.10;95.80;;;;;;4255485;27;20048;-62
2021/07/31 04:49:12;;;;;;;27.27;11.10;;;27.00;95.60;;;;;;4254747;27;20043;-61
2021/07/31 04:51:13;;;;;;;21.90;13.20;;;26.80;95.60;;;;;;4256554;27;20401;-63
2021/07/31 04:53:14;;;;;;;25.30;14.57;;;27.10;95.40;;;;;;4255764;27;20087;-63
2021/07/31 04:55:15;;;;;;;24.83;13.57;;;27.10;95.00;;;;;;4254637;27;20069;-62
2021/07/31 04:57:17;;;;;;;20.20;12.80;;;27.50;94.80;;;;;;4236032;27;20035;-62
2021/07/31 04:59:18;;;;;;;27.05;15.25;;;27.90;94.20;;;;;;4254407;27;20054;-63
2021/07/31 05:01:19;;;;;;;20.42;13.38;;;28.00;93.80;;;;;;4255232;27;20027;-63
2021/07/31 05:03:20;;;;;;;29.70;16.55;;;28.00;93.60;;;;;;4255935;27;20387;-62
2021/07/31 05:05:21;;;;;;;23.13;15.20;;;27.90;93.40;;;;;;4253176;27;20034;-62
2021/07/31 05:07:23;;;;;;;21.05;14.70;;;27.90;93.30;;;;;;4255181;27;20046;-63
2021/07/31 05:09:24;;;;;;;26.25;18.10;;;27.90;93.10;;;;;;4254710;27;20042;-62
2021/07/31 05:11:25;;;;;;;24.90;16.17;;;27.90;92.90;;;;;;4255701;27;20035;-62
2021/07/31 05:13:26;;;;;;;24.98;13.48;;;27.70;92.80;;;;;;4253535;27;20043;-62
2021/07/31 05:15:27;;;;;;;23.00;13.88;;;27.80;92.90;;;;;;4256363;27;20106;-62
2021/07/31 05:17:28;;;;;;;24.15;11.70;;;27.80;92.70;;;;;;4255924;27;20079;-62
2021/07/31 05:19:32;;;;;;;27.98;12.93;;;27.90;92.70;;;;;;4255808;27;20039;-62
2021/07/31 05:21:35;;;;;;;21.58;11.10;;;28.20;92.30;;;;;;4255099;27;20079;-62
2021/07/31 05:23:39;;;;;;;22.15;11.05;;;28.10;92.00;;;;;;4255571;27;20026;-62
2021/07/31 05:25:43;;;;;;;14.30;10.80;;;27.70;92.10;;;;;;4254604;27;20087;-62
2021/07/31 05:27:44;;;;;;;14.98;10.02;;;27.60;92.40;;;;;;4254762;27;20355;-62
2021/07/31 05:29:46;;;;;;;21.20;11.70;;;27.60;92.40;;;;;;4255465;27;20031;-62
2021/07/31 05:31:47;;;;;;;25.73;12.02;;;27.90;92.00;;;;;;4254963;27;20383;-62
2021/07/31 05:33:49;;;;;;;18.17;11.40;;;27.90;91.80;;;;;;4254893;27;20104;-62
2021/07/31 05:35:50;;;;;;;19.85;10.95;;;28.10;91.70;;;;;;4254539;27;20071;-61
2021/07/31 05:37:51;;;;;;;19.70;10.80;;;28.10;91.60;;;;;;4255706;27;20432;-62
2021/07/31 05:39:52;;;;;;;17.38;9.75;;;28.50;91.50;;;;;;4252875;27;20027;-62
2021/07/31 05:41:53;;;;;;;19.60;10.73;;;29.00;90.90;;;;;;4255927;27;20088;-62
2021/07/31 05:43:54;;;;;;;16.58;9.82;;;29.20;90.60;;;;;;4255313;27;20023;-61
2021/07/31 05:45:55;;;;;;;17.38;10.75;;;29.60;90.20;;;;;;4253176;27;20031;-61
2021/07/31 05:47:58;;;;;;;16.00;8.88;;;29.50;89.90;;;;;;4254814;27;20031;-61
2021/07/31 05:50:02;;;;;;;12.27;7.50;;;29.30;89.80;;;;;;4230668;28;20027;-62
2021/07/31 05:52:05;;;;;;;12.07;6.88;;;28.90;90.00;;;;;;4241955;27;20075;-62
2021/07/31 05:54:06;;;;;;;11.95;7.18;;;28.30;90.20;;;;;;4231454;27;20051;-63
2021/07/31 05:56:08;;;;;;;16.35;7.35;;;28.40;90.40;;;;;;4242253;27;20031;-61
2021/07/31 05:58:09;;;;;;;15.63;8.38;;;28.30;90.30;;;;;;4237780;27;20939;-61
2021/07/31 06:00:11;;;;;;;15.65;7.45;;;28.10;90.50;;;;;;4248467;27;20035;-62
2021/07/31 06:02:12;;;;;;;10.52;6.40;;;27.80;90.70;;;;;;4254687;27;20034;-61
2021/07/31 06:04:13;;;;;;;11.40;6.72;;;27.00;91.00;;;;;;4255520;27;20015;-62
2021/07/31 06:06:14;;;;;;;12.10;7.07;;;26.40;92.00;;;;;;4254939;27;20075;-62
2021/07/31 06:08:16;;;;;;;13.52;8.25;;;26.20;92.30;;;;;;4254190;27;20031;-62
2021/07/31 06:10:17;;;;;;;13.25;7.20;;;26.30;92.30;;;;;;4244377;27;20519;-62
2021/07/31 06:12:18;;;;;;;13.43;8.07;;;26.20;92.40;;;;;;4238669;28;20529;-62
2021/07/31 06:14:19;;;;;;;11.07;6.65;;;26.00;92.30;;;;;;4238068;28;20076;-62
2021/07/31 06:16:20;;;;;;;11.13;7.07;;;25.50;92.80;;;;;;4239016;28;20080;-62
2021/07/31 06:18:23;;;;;;;17.25;6.80;;;25.10;93.40;;;;;;4238214;28;20100;-61
2021/07/31 06:20:24;;;;;;;14.00;9.45;;;25.00;93.90;;;;;;4237548;28;20420;-61
2021/07/31 06:22:25;;;;;;;10.32;7.18;;;24.80;94.30;;;;;;4238418;28;20070;-60
2021/07/31 06:24:27;;;;;;;14.68;7.18;;;24.90;94.30;;;;;;4252654;27;20084;-61
2021/07/31 06:26:28;;;;;;;17.00;6.75;;;24.70;94.70;;;;;;4248965;27;20080;-61
2021/07/31 06:28:30;;;;;;;17.20;9.77;;;24.80;94.80;;;;;;4241652;27;20027;-61
2021/07/31 06:30:31;;;;;;;16.70;6.88;;;24.90;94.70;;;;;;4241514;27;20052;-61
2021/07/31 06:32:32;;;;;;;13.52;7.38;;;24.60;95.10;;;;;;4241345;27;20520;-62
2021/07/31 06:34:33;;;;;;;15.93;7.10;;;24.50;95.60;;;;;;4241184;27;20046;-60
2021/07/31 06:36:34;;;;;;;12.07;6.40;;;24.80;95.40;;;;;;4240105;27;20088;-62
2021/07/31 06:38:35;;;;;;;10.55;6.20;;;24.70;95.50;;;;;;4240873;27;20444;-62
2021/07/31 06:40:37;;;;;;;9.63;6.15;;;24.80;95.50;;;;;;4240899;27;20035;-62
2021/07/31 06:42:38;;;;;;;11.68;6.28;;;24.70;95.50;;;;;;4241256;27;20023;-62
2021/07/31 06:44:39;;;;;;;8.93;6.53;;;24.60;96.00;;;;;;4242003;27;20811;-60
2021/07/31 06:46:40;;;;;;;11.25;5.95;;;24.50;96.30;;;;;;4241408;27;20091;-64
2021/07/31 06:48:42;;;;;;;7.88;6.10;;;24.60;96.40;;;;;;4240679;27;20476;-63
2021/07/31 06:50:43;;;;;;;10.35;6.82;;;24.90;96.10;;;;;;4241743;27;20034;-62
2021/07/31 06:52:44;;;;;;;10.40;6.32;;;25.00;95.90;;;;;;4240608;27;20116;-62
2021/07/31 06:54:45;;;;;;;9.77;6.32;;;25.20;95.70;;;;;;4240491;27;20084;-64
2021/07/31 06:56:46;;;;;;;11.88;6.32;;;25.40;95.50;;;;;;4241179;27;20060;-65
2021/07/31 06:58:47;;;;;;;9.05;6.65;;;25.20;95.90;;;;;;4241155;27;20047;-62
2021/07/31 07:00:49;;;;;;;11.65;6.78;;;25.20;96.20;;;;;;4240981;27;20087;-63
2021/07/31 07:02:50;;;;;;;12.60;6.53;;;25.10;96.40;;;;;;4240790;27;20116;-62
2021/07/31 07:04:51;;;;;;;9.00;6.05;;;25.20;96.50;;;;;;4240864;27;20125;-65
2021/07/31 07:06:52;;;;;;;9.77;6.60;;;25.10;96.80;;;;;;4240970;27;20035;-62
2021/07/31 07:08:53;;;;;;;9.80;6.40;;;25.30;96.60;;;;;;4240858;27;20039;-63
2021/07/31 07:10:54;;;;;;;11.30;6.63;;;25.40;96.50;;;;;;4241398;27;20015;-60
2021/07/31 07:12:55;;;;;;;9.75;6.60;;;25.60;96.50;;;;;;4257329;27;20084;-61
2021/07/31 07:14:56;;;;;;;8.50;6.30;;;25.90;96.40;;;;;;4256805;27;20095;-60
2021/07/31 07:16:57;;;;;;;8.55;6.18;;;25.90;96.30;;;;;;4253420;27;20087;-62
2021/07/31 07:18:59;;;;;;;12.95;6.35;;;26.20;96.20;;;;;;4256499;27;20042;-61
2021/07/31 07:21:08;;;;;;;8.85;5.97;;;26.50;96.10;;;;;;4257031;27;20537;-61
2021/07/31 07:23:09;;;;;;;8.38;5.85;;;26.50;95.90;;;;;;4256398;27;20042;-61
2021/07/31 07:25:11;;;;;;;7.75;6.05;;;26.50;96.10;;;;;;4256575;27;20042;-60
2021/07/31 07:27:12;;;;;;;8.82;6.00;;;26.40;96.00;;;;;;4255040;27;20111;-60
2021/07/31 07:29:13;;;;;;;12.30;7.25;;;26.30;96.30;;;;;;4257321;27;20078;-60
2021/07/31 07:31:15;;;;;;;14.38;5.80;;;26.10;96.60;;;;;;4257286;27;20083;-60
2021/07/31 07:33:16;;;;;;;7.10;6.05;;;26.20;96.90;;;;;;4257776;27;20038;-60
2021/07/31 07:35:17;;;;;;;11.02;6.20;;;26.40;96.60;;;;;;4256950;27;20055;-60
2021/07/31 07:37:18;;;;;;;8.65;6.35;;;26.50;96.50;;;;;;4256083;27;20091;-60
2021/07/31 07:39:19;;;;;;;8.65;6.05;;;26.30;96.60;;;;;;4253255;27;20895;-62
2021/07/31 07:41:20;;;;;;;8.55;5.97;;;26.10;97.00;;;;;;4241622;27;20031;-59
2021/07/31 07:43:22;;;;;;;9.63;5.65;;;26.10;97.20;;;;;;4251715;27;20102;-60
2021/07/31 07:45:23;;;;;;;9.30;5.47;;;26.10;97.40;;;;;;4244421;27;20143;-59
2021/07/31 07:47:24;;;;;;;11.27;5.30;;;26.20;97.40;;;;;;4234432;27;20092;-59
2021/07/31 07:49:25;;;;;;;6.95;5.05;;;26.10;97.70;;;;;;4253015;27;20087;-59
2021/07/31 07:51:26;;;;;;;5.72;4.95;;;26.30;97.40;;;;;;4235165;27;20039;-61
2021/07/31 07:53:27;;;;;;;13.95;5.05;;;26.50;97.20;;;;;;4246236;27;20038;-61
2021/07/31 07:55:28;;;;;;;7.90;4.97;;;26.60;97.10;;;;;;4256542;27;20555;-61
2021/07/31 07:57:29;;;;;;;10.60;5.45;;;26.60;97.10;;;;;;4254770;27;20014;-61
2021/07/31 07:59:31;;;;;;;6.75;4.75;;;26.80;96.90;;;;;;4237628;27;20554;-61
2021/07/31 08:01:32;;;;;;;6.90;4.68;;;26.80;96.70;;;;;;4238637;27;20052;-60
2021/07/31 08:03:33;;;;;;;5.25;4.75;;;26.90;96.60;;;;;;4239328;27;20710;-61
2021/07/31 08:05:38;;;;;;;5.82;4.22;;;27.00;96.50;;;;;;4241183;27;20506;-61
2021/07/31 08:07:43;;;;;;;8.35;4.45;;;27.20;96.30;;;;;;4256043;27;20034;-60
2021/07/31 08:09:44;;;;;;;6.53;4.07;;;27.00;96.50;;;;;;4256496;27;20490;-60
2021/07/31 08:11:45;;;;;;;6.43;4.15;;;27.20;96.40;;;;;;4255396;27;20144;-60
2021/07/31 08:13:46;;;;;;;4.28;3.85;;;27.20;96.20;;;;;;4256759;27;20083;-61
2021/07/31 08:15:47;;;;;;;4.82;3.78;;;27.20;96.10;;;;;;4256924;27;20034;-60
2021/07/31 08:17:48;;;;;;;5.75;3.70;;;27.40;96.00;;;;;;4256851;27;20031;-60
2021/07/31 08:19:50;;;;;;;5.43;4.03;;;27.50;95.80;;;;;;4256160;27;20098;-61
2021/07/31 08:21:51;;;;;;;5.82;4.35;;;27.70;95.70;;;;;;4256067;27;20030;-60
2021/07/31 08:23:52;;;;;;;4.70;3.78;;;27.70;95.60;;;;;;4255863;27;20106;-60
2021/07/31 08:25:53;;;;;;;7.15;4.18;;;27.70;95.30;;;;;;4256019;27;20031;-60
2021/07/31 08:27:54;;;;;;;6.22;4.47;;;27.70;95.30;;;;;;4256395;27;20071;-60
2021/07/31 08:29:56;;;;;;;5.00;4.03;;;27.90;95.20;;;;;;4255408;27;20432;-60
2021/07/31 08:31:57;;;;;;;7.65;4.43;;;28.00;94.90;;;;;;4256532;27;20038;-60
2021/07/31 08:33:58;;;;;;;5.47;3.90;;;27.80;94.80;;;;;;4255719;27;20471;-60
2021/07/31 08:35:59;;;;;;;7.25;4.03;;;27.90;94.80;;;;;;4255114;27;20087;-60
2021/07/31 08:38:02;;;;;;;5.97;4.05;;;28.10;94.60;;;;;;4255745;27;20088;-62
2021/07/31 08:40:07;;;;;;;7.05;4.20;;;28.10;94.60;;;;;;4256474;27;20030;-61
2021/07/31 08:42:12;;;;;;;5.93;4.07;;;28.20;94.50;;;;;;4256158;27;20099;-60
2021/07/31 08:44:13;;;;;;;5.18;3.67;;;28.30;94.30;;;;;;4255807;27;20542;-61
2021/07/31 08:46:14;;;;;;;6.03;3.92;;;28.40;94.30;;;;;;4255922;27;20027;-60
2021/07/31 08:48:17;;;;;;;6.03;3.45;;;28.50;94.20;;;;;;4254268;27;20047;-59
2021/07/31 08:50:21;;;;;;;8.43;4.20;;;28.50;94.00;;;;;;4253905;27;20039;-59
2021/07/31 08:52:25;;;;;;;9.73;4.38;;;28.70;93.60;;;;;;4255071;27;20091;-59
2021/07/31 08:54:26;;;;;;;6.55;4.00;;;28.90;93.50;;;;;;4255574;27;20031;-60
2021/07/31 08:56:27;;;;;;;7.63;4.32;;;29.00;93.30;;;;;;4255971;27;20057;-60
2021/07/31 08:58:28;;;;;;;8.60;4.18;;;28.90;92.90;;;;;;4256107;27;20474;-58
2021/07/31 09:00:30;;;;;;;6.07;4.05;;;29.00;92.90;;;;;;4255382;27;20087;-59
2021/07/31 09:02:45;;;;;;;7.63;4.00;;;29.20;92.80;;;;;;4254927;27;20072;-60
2021/07/31 09:04:50;;;;;;;7.53;3.75;;;29.40;92.00;;;;;;4255631;27;20091;-60
2021/07/31 09:06:51;;;;;;;5.40;3.60;;;29.50;92.10;;;;;;4256015;27;20095;-60
2021/07/31 09:08:53;;;;;;;4.32;2.97;;;29.80;91.30;;;;;;4256238;27;20039;-59
2021/07/31 09:10:54;;;;;;;4.22;3.05;;;29.90;90.30;;;;;;4255608;27;20026;-60
2021/07/31 09:13:01;;;;;;;4.45;2.90;;;30.00;90.00;;;;;;4255823;27;20068;-64
2021/07/31 09:15:02;;;;;;;4.20;3.30;;;30.20;89.20;;;;;;4255206;27;20059;-60
2021/07/31 09:17:03;;;;;;;7.60;3.38;;;30.30;88.80;;;;;;4254946;27;20047;-60
2021/07/31 09:19:06;;;;;;;6.25;3.42;;;30.30;86.90;;;;;;4256070;27;20480;-60
2021/07/31 09:21:12;;;;;;;3.85;3.17;;;30.20;87.00;;;;;;4255880;27;20554;-60
2021/07/31 09:23:13;;;;;;;5.78;2.53;;;30.30;85.40;;;;;;4256642;27;20034;-60
2021/07/31 09:25:16;;;;;;;4.03;2.60;;;30.40;84.10;;;;;;4254607;27;20038;-59
2021/07/31 09:27:25;;;;;;;4.78;2.65;;;30.40;83.50;;;;;;4254976;27;20043;-60
2021/07/31 09:29:32;;;;;;;6.05;2.85;;;30.50;82.80;;;;;;4254710;27;20051;-61
2021/07/31 09:31:34;;;;;;;3.42;2.83;;;30.70;82.30;;;;;;4255719;27;20462;-60
2021/07/31 09:33:40;;;;;;;5.07;2.30;;;30.70;81.10;;;;;;4255656;27;20083;-60
2021/07/31 09:35:41;;;;;;;7.03;2.63;;;30.70;81.10;;;;;;4255148;27;20042;-60
2021/07/31 09:37:50;;;;;;;6.22;2.95;;;30.70;81.10;;;;;;4254348;27;20443;-60
2021/07/31 09:40:05;;;;;;;4.20;3.38;;;30.60;79.90;;;;;;4255735;27;20031;-60
2021/07/31 09:42:23;;;;;;;4.93;3.08;;;30.50;79.40;;;;;;4255366;27;20022;-59
2021/07/31 09:44:24;;;;;;;4.93;2.80;;;30.30;79.20;;;;;;4254762;27;20035;-61
2021/07/31 09:46:48;;;;;;;4.05;3.40;;;30.20;80.20;;;;;;4255496;27;20517;-60
2021/07/31 09:48:57;;;;;;;6.80;3.08;;;30.10;81.00;;;;;;4255713;27;20026;-60
2021/07/31 09:50:59;;;;;;;5.85;3.70;;;30.20;79.40;;;;;;4255627;27;20031;-60
2021/07/31 09:53:16;;;;;;;4.30;3.00;;;30.30;79.80;;;;;;4255450;27;20562;-60
2021/07/31 09:55:20;;;;;;;5.57;2.88;;;30.50;80.20;;;;;;4254824;27;20119;-60
2021/07/31 09:57:25;;;;;;;4.28;2.85;;;30.50;78.50;;;;;;4254797;27;20023;-59
2021/07/31 09:59:26;;;;;;;5.43;3.25;;;30.40;79.10;;;;;;4255409;27;20047;-59
2021/07/31 10:01:29;;;;;;;3.78;2.80;;;30.30;79.00;;;;;;4258320;27;20042;-60
2021/07/31 10:03:30;;;;;;;5.90;3.50;;;30.40;79.30;;;;;;4257845;27;20051;-60
2021/07/31 10:05:33;;;;;;;4.28;2.92;;;30.30;78.40;;;;;;4258420;27;20039;-60
2021/07/31 10:07:39;;;;;;;6.20;2.42;;;30.20;78.20;;;;;;4258954;27;20027;-60
2021/07/31 10:09:50;;;;;;;4.75;2.90;;;30.20;77.50;;;;;;4258155;27;20039;-61
2021/07/31 10:11:52;;;;;;;6.65;3.58;;;30.20;77.60;;;;;;4259168;27;20099;-60
2021/07/31 10:13:55;;;;;;;3.42;2.50;;;30.30;78.70;;;;;;4257538;27;20078;-60
2021/07/31 10:15:57;;;;;;;4.82;3.20;;;30.30;77.70;;;;;;4258267;27;20087;-60
2021/07/31 10:17:59;;;;;;;4.60;2.63;;;30.40;77.90;;;;;;4258459;27;20075;-60
2021/07/31 10:20:00;;;;;;;2.53;2.33;;;30.40;77.30;;;;;;4257629;27;20035;-60
2021/07/31 10:22:01;;;;;;;3.95;2.70;;;30.50;76.90;;;;;;4258485;27;20103;-60
2021/07/31 10:24:05;;;;;;;3.90;2.88;;;30.50;76.90;;;;;;4258901;27;20027;-60
2021/07/31 10:26:08;;;;;;;5.78;3.10;;;30.60;77.60;;;;;;4258100;27;20010;-60
2021/07/31 10:28:26;;;;;;;4.78;3.00;;;30.70;78.00;;;;;;4257919;27;20034;-60
2021/07/31 10:30:27;;;;;;;6.05;2.72;;;30.70;78.90;;;;;;4258205;27;20023;-60